Meridian, OK (73058)

12:57 PM CDT on August 01, 2015 (GMT -0500)
3.8 Miles SE of Downtown | | Change Station
CLOSE
Current Station
Personal Weather Station
Location: Guthrie, OK
Elevation: 1200 ft
Nearby Weather Stations

Elev 1200 ft 35.83 °N, 97.36 °W | Updated 3 seconds ago

Clear
Clear
90.6 °F
Feels Like 95 °F
N
3.0
Wind Variable Wind from SSE
Gusts 13.5 mph

Today
High -- | Low -- °F
--% Chance of Precip.
Yesterday
High -- | Low -- °F
Precip. -- in
6:36 AM 8:33 PM
Full, 98% visible
Pressure 30.04 in
Visibility 10.0 miles
Clouds Mostly Cloudy 6500 ft
Heat Index 95 °F
Dew Point 69 °F
Humidity 49%
Rainfall 0.00 in
Snow Depth Not available.
UV 6 out of 12
Pollen 6.00 out of 12
Air Quality Not available.
Flu Activity Not available.
METAR KGOK 011753Z AUTO 17008KT 10SM BKN065 33/19 A3007 RMK AO2 SLP170 T03280189 10328 20222 58007

More Conditions Fewer Conditions

Pressure 30.04 in
Visibility 10.0 miles
Clouds Mostly Cloudy 6500 ft
Heat Index 95 °F
Dew Point 69 °F
Humidity 49%
Rainfall 0.00 in
Snow Depth Not available.
UV 6 out of 12
Pollen 6.00 out of 12
Air Quality Not available.
Flu Activity Not available.
METAR KGOK 011753Z AUTO 17008KT 10SM BKN065 33/19 A3007 RMK AO2 SLP170 T03280189 10328 20222 58007

More Conditions Fewer Conditions

10-Day Weather Forecast

×

Almanac

Astronomy

Aug. 01, 2015 Rise Set
Actual Time
Civil Twilight
Nautical Twilight
Astronomical Twilight
Moon
Length of Visible Light
Length of Day
Tomorrow will be .
, % of the Moon is Illuminated

Today's Extremes

State Highs State Lows

Community

WunderPhotos

Upload Photos

1,843,004 photos uploaded!

WunderBlogs® & News

Nearby

Air Quality

  Air Quality AQ Index Pollutant
Not available.

Snow Depth

Station Depth Elevation

Earthquake Activity

City Distance Mag. Time & Date
Minimum magnitude displayed is 2.5.

Coastal Water Temperatures

Place Temperature

Stations

Nearby Weather Stations

Station Location Temp. Windchill Dew Point Humidity Wind Precip. Elev Updated Type